Puerto Cabezas, Nicaragua
Current Conditions -  °F | °C
As of 2:00 PM on Wednesday 26 Nov 2014 (Local Time) from SKSP Reporting Station
Broken Clouds Broken Clouds  
Wind Chill: 82°   Ceiling: 8000
Heat Index: 92°   Visibility: 6mi
Dew Point: 79°   Wind: 8mph
Humidity: 89%   Direction: 60°ENE
Pressure: 29.82"   Gusts: NA
Location:  14.03°N, 83.39°W
Report Text: SKSP 262000Z 06007KT 9999 FEW016 BKN080 28/26 A2982
Loading
Personal Weather Stations






























Interactive Weather Map New forecast layout! Learn more

10-Day Weather Forecast

Advertisements
Track Severe Weather on mobile